CFK2 weather

Bashaw Airport
Bashaw, Alberta, Canada

Public forecast

Using degrees Celsius for public forecast. Weather courtesy of forecast.io.

METAR (pilot weather report)

Closest report is Red Deer Regional Airport, 40.8 nm (75.6 km) WSW. Retrieved 2019/07/18 03:00 UTC (50 minutes ago):

CYQF 180300Z 17006KT 15SM FEW020 SCT100 BKN250 17/12 A2953 RMK SC2AC2CI1 SLP005 DENSITY ALT 4400FT

TAF (pilot weather forecast)

Forecast is more than 12 hours old.

Closest forecast is Red Deer Regional Airport, 40.8 nm (75.6 km) WSW. Retrieved 2019/07/17 00:42 UTC (1 day ago):

TAF CYQF 172338Z 1800/1812 18012KT P6SM SCT030 BKN120 TEMPO 1800/1803 VRB15G25KT 4SM TSRA BKN030CB FM180300 25008KT P6SM SCT060 SCT250 FM181000 24008KT P6SM BKN060 BKN120 RMK NXT FCST BY 180600Z